Logo AVAMET
Benvolgut visitant, si us plau, ingressa Recuperar contrasenya
AVAMET paisatges

Castelló de Rugat

Dades diàries. Acumulats / Últims 30 dies disponibles

Data Temperatura (°C) Humitat rel. (%) Pressió rel. (hPa) Vent (km/h) Precipitació
Mínima Mitjana Màxima Amplitud
tèrmica
Mínima Mitjana Màxima Mínima Mitjana Màxima Predom. Mitjana Ràfega
màxima
Total
(mm)
Índex-n
Mínima Mitjana Màxima Mínima Mitjana Màxima n
0 a 1
P0 max
mm 5'
Dades mensuals acumulades fins l'últim dia disponible
10/2020 9,0 13,6 18,1 18,4 20,4 24,2 31,8 22,8 22 61 91 991 1.016 1.025   4,1 61,2 6,4
Dades anuals acumulades fins l'últim dia disponible
2020 2,8 14,5 23,8 18,9 8,2 24,1 42,7 39,9 14 70 96 991 1.017 1.034   5,4 75,6 650,6
Últims 30 dies disponibles
23-10-2020 15,6     18,3     23,6 8,0 38 63 89 1.017 1.020 1.025 SO 4,1 29,0 0,0
22-10-2020 16,6     18,2     20,4 3,8 64 79 91 1.012 1.014 1.017 SW 1,0 11,3 1,6
21-10-2020 15,3     20,0     26,9 11,6 41 74 91 1.009 1.011 1.013 SSW 5,1 38,6 0,0
20-10-2020 12,6     16,2     21,1 8,5 71 84 90 1.010 1.015 1.019 WSW 1,3 14,5 0,0
19-10-2020 12,2     16,6     20,4 8,2 64 80 91 1.018 1.020 1.022 NE 4,8 30,6 0,0
18-10-2020 10,5     15,8     20,7 10,2 63 76 88 1.019 1.020 1.022 NE 5,0 32,2 0,0
17-10-2020 9,0     15,4     22,8 13,8 27 52 72 1.016 1.017 1.019 NE 2,9 20,9 0,0
16-10-2020 9,0     14,6     22,0 13,0 23 51 67 1.015 1.017 1.019 NE 3,4 27,4 0,0
15-10-2020 11,0     16,2     22,0 11,0 28 43 57 1.013 1.015 1.017 SW 3,2 29,0 0,0
14-10-2020 14,1     16,7     21,4 7,3 42 66 83 1.008 1.010 1.014 NE 5,6 37,0 0,0
13-10-2020 13,1     20,0     27,7 14,6 33 45 59 1.011 1.015 1.019 SW 2,9 20,9 0,0
12-10-2020 10,9     15,9     21,7 10,8 30 48 68 1.018 1.021 1.023 NE 2,7 20,9 0,0
11-10-2020 13,5     17,7     22,1 8,6 39 62 90 1.019 1.021 1.022 NE 7,7 30,6 0,0
10-10-2020 17,4     20,3     23,1 5,7 69 79 88 1.019 1.021 1.022 NE 4,3 25,7 0,0
09-10-2020 16,1     21,0     27,9 11,8 48 77 89 1.019 1.021 1.023 NE 3,9 22,5 0,0
08-10-2020 16,1     20,6     24,3 8,2 53 71 86 1.021 1.023 1.025 NE 5,6 29,0 0,0
07-10-2020 18,1     23,5     29,7 11,6 30 51 65 1.019 1.020 1.022 NE 4,0 24,1 0,0
06-10-2020 14,1     21,5     29,0 14,9 35 45 55 1.018 1.020 1.022 WSW 2,3 19,3 0,0
05-10-2020 14,7     18,5     23,9 9,2 32 50 63 1.013 1.015 1.021 SW 3,2 22,5 0,0
04-10-2020 13,5     17,9     24,1 10,6 39 52 64 1.007 1.010 1.012 SW 6,4 40,2 0,0
03-10-2020 10,7     15,9     22,4 11,7 34 52 68 1.001 1.006 1.011 SW 5,1 32,2 0,0
02-10-2020 11,4     19,2     27,1 15,7 43 59 87 991 998 1.006 SW 7,7 61,2 4,8 0,20 0,80
01-10-2020 17,4     24,1     31,8 14,4 22 47 87 1.005 1.009 1.013 SW 2,9 32,2 0,0
30-09-2020 14,4     19,9     25,6 11,2 46 75 88 1.012 1.015 1.018 SSE 3,2 24,1 0,0
29-09-2020 13,4     18,4     23,9 10,5 61 75 86 1.016 1.018 1.020 NE 6,0 30,6 0,0
28-09-2020 12,7     18,6     25,9 13,2 27 57 76 1.014 1.015 1.018 NE 4,8 35,4 0,0
27-09-2020 16,2     19,9     23,5 7,3 29 49 61 1.009 1.011 1.015 NE 6,8 35,4 0,0
26-09-2020 13,2     19,3     25,5 12,3 29 41 53 1.011 1.016 1.020 SSW 3,1 19,3 0,0
25-09-2020 17,6     21,7     26,1 8,5 27 46 68 1.012 1.015 1.020 SW 5,3 27,4 0,0
24-09-2020 21,6     25,3     30,9 9,3 38 52 63 1.011 1.013 1.014 SW 4,8 32,2 0,0
Últims 13 mesos disponibles
09/2020 12,7 17,9 21,6 22,3 22,1 27,5 32,1 19,4 41 67 82 1.011 1.017 1.023 NE 5,6 61,2 20,8
08/2020 14,9 21,6 23,8 26,6 24,8 32,4 42,7 27,8 41 67 82 1.003 1.013 1.018 NE 7,0 62,8 2,6
07/2020 17,9 21,1 23,1 25,5 27,3 30,7 40,3 22,4 55 71 79 1.011 1.015 1.019 NE 7,6 62,8 7,6
06/2020 13,9 17,7 21,5 22,8 20,3 28,5 33,2 19,3 43 67 83 1.005 1.014 1.020 NE 6,4 45,1 20,6
05/2020 11,1 15,3 18,8 20,0 16,3 25,4 32,2 21,1 49 68 91 1.005 1.016 1.026 NE 5,5 45,1 103,4
04/2020 7,9 11,4 15,8 14,5 14,4 18,8 25,8 17,9 50 78 95 1.006 1.016 1.025 NE 5,3 41,8 64,2
03/2020 4,3 9,5 14,3 13,1 8,4 17,4 28,5 24,2 43 72 93 1.007 1.017 1.026 SW 5,4 61,2 122,0
02/2020 4,3 9,9 13,8 14,7 12,6 20,7 26,3 22,0 36 66 91 1.014 1.025 1.032 SW 3,2 45,1 4,8
01/2020 2,8 6,9 12,9 10,4 8,2 15,3 20,2 17,4 52 75 93 1.015 1.025 1.032 SW 3,8 75,6 298,2
12/2019 4,4 9,5 17,0 13,0 10,9 17,4 24,4 20,0 43 71 95 1.002 1.019 1.032 SW 4,4 77,2 181,8
11/2019 4,3 10,4 19,1 14,0 14,3 18,6 25,9 21,6 52 62 78 999 1.011 1.019 SW 4,7 82,1 17,4
10/2019 10,4 15,2 18,8 19,4 14,3 24,6 33,3 22,9 41 66 91 1.008 1.016 1.022 SW 3,3 40,2 49,0
09/2019 12,7 18,7 21,5 22,5 19,4 27,0 33,2 20,5 45 79 96 1.009 1.016 1.023 NE 5,5 78,9 158,8
Tots els anys disponibles
2019 -0,3 13,1 25,3 17,5 10,9 22,7 41,5 41,8 9 68 100 978 1.015 1.032 SW 5,6 82,1 847,5
2018 0,6 13,2 24,5 17,4 5,3 22,3 37,0 36,4 17 70 100 989 1.015 1.031 SE 5,0 74,0 662,4
2017 -1,5 13,1 28,7 17,8 4,8 22,4 38,0 39,5 20 68 99 997 1.018 1.032 S 0,1 73,0 540,1
2016 1,3 13,1 25,8 17,7 7,0 22,3 40,4 39,1 17 63 100 995 1.017 1.034 72,0 909,9
2015 2,4 14,4 27,7 19,1 8,7 23,8 42,2 39,8 11 63 97 1.006 1.019 1.033 69,0 411,1
Temperatura (°C)
Humitat relativa (%)
Velocitat del vent i ràfega màxima (km/h)
Direcció del vent (°)
Pressió (hPa)
Precipitació (mm)
Nota sobre les dades: s'avisa a l'usuari de la provisionalitat i no oficialitat d'aquestes dades
Logo AVAMET blanc
Web allotjada a Sollutia
Llicència de Creative CommonsLa web d'AVAMET i els seus continguts estan subjectes a una llicència de
Reconeixement - No Comercial - Compartir igual
Avís legal - Política de privacitat - Política de cookies
Últimes estacions: Beniarjó (Inforatge), Sueca - Mareny de Barraquetes (Inforatge), La Vilavella - Centre (Ajuntament Soci), Alfondeguilla (Soci), Santa Magdalena de Polpís (Soci),  Benafigos (Aj. Soci), Carlet - Ajuntament (Inforatge), Montroi (Inforatge), Bronchales (Limítrofe-Terol/Aj. Soci), - - -